Detalii statie PROACUA CEFA [00001987]

Toti senzorii

Date Temperatura solului [C]Precipitatii [mm]Voltaj baterie [mV]Leaf Wetness [Min]HC Air temperature [C]HC Relative humidity [%]Punctul de roua [C]
medieminmaxsumaultimatimpmedieminmaxmediemediemin
2017-06-25 06:00:00 0 6884 16.98 16.52 17.73 0 0 0
2017-06-25 07:00:00 0 6952 19.29 18.06 20.76 0 0 0
2017-06-25 08:00:00 0 6992 22.31 21.22 22.99 0 0 0
2017-06-25 09:00:00 0 7060 24.91 23.37 25.88 0 0 0
2017-06-25 10:00:00 0 7304 25.64 25.13 26.13 0 0 0
2017-06-25 11:00:00 0 7304 26.89 25.91 27.74 0 0 0
2017-06-25 12:00:00 0 7304 28.47 27.06 29.92 0 0 0
2017-06-25 13:00:00 0 7304 28.86 27.81 30.11 0 0 0
2017-06-25 14:00:00 0 7304 28.2 27.93 28.66 0 0 0
2017-06-25 15:00:00 0 7304 28.64 28.49 29.02 0 0 0
2017-06-25 16:00:00 0 7206 29.47 28.66 30.43 0 0 0
2017-06-25 17:00:00 0 7294 29.51 28.87 30.49 0 0 0
2017-06-25 18:00:00 0 7294 28.56 27.92 29.41 0 0 0
2017-06-25 19:00:00 0 7284 28.91 28.58 29.1 0 0 0
2017-06-25 20:00:00 0 6864 25.81 24.17 28.51 0 0 0
2017-06-25 21:00:00 0 6854 24.4 23.3 25.29 0 0 0
2017-06-25 22:00:00 0 6864 22.56 21.72 23.12 0 0 0
2017-06-25 23:00:00 0 6854 21.86 21.63 22.06 0 0 0
2017-06-26 00:00:00 0 6854 22.48 22.11 23.43 0 0 0
2017-06-26 01:00:00 0 6854 20.34 19.85 22.1 0 0 0
2017-06-26 02:00:00 0 6854 19.62 19.42 19.95 0 0 0
2017-06-26 03:00:00 0 6834 19.3 19.18 19.49 0 0 0
2017-06-26 04:00:00 0 6844 19.28 19.1 19.42 0 0 0
2017-06-26 05:00:00 0 6834 19.06 18.93 19.31 0 0 0
2017-06-26 06:00:00 0 6884 19.16 18.87 19.53 0 0 0
2017-06-26 07:00:00 0 6922 19.57 19.42 19.97 22.62 0
2017-06-26 08:00:00 0 6962 20.33 20.07 20.58 0 0 0
2017-06-26 09:00:00 0 7030 20.91 20.53 21.46 0 0 0
2017-06-26 10:00:00 0 7304 22.97 21.4 23.96 0 0 0
2017-06-26 11:00:00 0 7332 24.23 23.24 25.22 0 0 0
2017-06-26 12:00:00 0 7314 25.4 24.95 25.89 0 0 0
2017-06-26 13:00:00 0 7304 25.85 24.88 26.65 0 0 0
2017-06-26 14:00:00 0 7206 25.75 24.03 27.43 0 0 0
2017-06-26 15:00:00 0 7304 26.5 24.5 27.43 0 0 0
2017-06-26 16:00:00 0 7294 26.66 25.82 27.62 0 0 0
2017-06-26 17:00:00 0 7294 26.85 26.41 27.19 0 0 0
2017-06-26 18:00:00 0 7128 26.49 25.85 26.94 0 0 0
2017-06-26 19:00:00 0 7274 25.29 24.04 26.62 0 0 0
2017-06-26 20:00:00 0 6894 23.92 23.8 24.06 0 0 0
2017-06-26 21:00:00 0 6854 22.94 22.33 23.7 0 0 0
2017-06-26 22:00:00 0 6854 20.68 19.54 22.35 0 0 0
2017-06-26 23:00:00 0 6854 20.46 19.92 21.03 0 0 0
2017-06-27 00:00:00 0 6854 19.73 18.86 20.56 0 0 0
2017-06-27 01:00:00 0 6854 18.14 17.73 18.78 0 0 0
2017-06-27 02:00:00 0 6844 17.64 17.52 17.85 0 0 0
2017-06-27 03:00:00 0 6844 17.18 16.99 17.42 0 0 0
2017-06-27 04:00:00 0 6834 17.05 16.87 17.28 0 0 0
2017-06-27 05:00:00 0 6844 16.52 16.26 16.72 0 0 0